createdAt,value
2018-07-30T00:00:08.085Z,0
2018-07-30T00:01:10.724Z,0
2018-07-30T00:02:13.063Z,0
2018-07-30T00:03:15.115Z,0
2018-07-30T00:04:17.150Z,0
2018-07-30T00:05:19.651Z,0
2018-07-30T00:06:21.686Z,0
2018-07-30T00:07:23.729Z,0
2018-07-30T00:08:25.788Z,0
2018-07-30T00:09:27.826Z,0
2018-07-30T00:10:29.873Z,0
2018-07-30T00:11:31.924Z,0
2018-07-30T00:12:34.355Z,0
2018-07-30T00:13:36.396Z,0
2018-07-30T00:14:38.444Z,0
2018-07-30T00:15:40.487Z,0
2018-07-30T00:16:42.812Z,0
2018-07-30T00:17:44.862Z,0
2018-07-30T00:18:46.910Z,0
2018-07-30T00:19:48.951Z,0
2018-07-30T00:20:50.999Z,0
2018-07-30T00:21:53.341Z,0
2018-07-30T00:22:55.977Z,0
2018-07-30T00:23:58.314Z,0
2018-07-30T00:25:00.650Z,0
2018-07-30T00:26:02.694Z,0
2018-07-30T00:27:05.037Z,0
2018-07-30T00:28:07.380Z,0
2018-07-30T00:29:09.421Z,0
2018-07-30T00:30:11.471Z,0
2018-07-30T00:31:13.813Z,0
2018-07-30T00:32:15.854Z,0
2018-07-30T00:33:17.906Z,0
2018-07-30T00:34:19.954Z,0
2018-07-30T00:35:22.391Z,0
2018-07-30T00:36:24.714Z,0
2018-07-30T00:37:26.768Z,0
2018-07-30T00:38:28.809Z,0
2018-07-30T00:39:30.860Z,0
2018-07-30T00:40:32.912Z,0
2018-07-30T00:41:35.340Z,0
2018-07-30T00:42:37.389Z,0
2018-07-30T00:43:39.436Z,0
2018-07-30T00:44:41.482Z,0
2018-07-30T00:45:43.522Z,0
2018-07-30T00:46:45.855Z,0
2018-07-30T00:47:48.204Z,0
2018-07-30T00:48:50.246Z,0
2018-07-30T00:49:52.302Z,0
2018-07-30T00:50:54.342Z,0
2018-07-30T00:51:56.386Z,0
2018-07-30T00:52:58.437Z,0
2018-07-30T00:54:00.481Z,0
2018-07-30T00:55:02.977Z,0
2018-07-30T00:56:04.973Z,0
2018-07-30T00:57:07.024Z,0
2018-07-30T00:58:09.075Z,0
2018-07-30T00:59:11.114Z,0
2018-07-30T01:00:13.543Z,0
2018-07-30T01:01:15.603Z,0
2018-07-30T01:02:17.652Z,0
2018-07-30T01:03:19.684Z,0
2018-07-30T01:04:21.729Z,0
2018-07-30T01:05:23.770Z,0
2018-07-30T01:06:25.934Z,0
2018-07-30T01:07:27.988Z,0
2018-07-30T01:08:30.029Z,0
2018-07-30T01:09:32.066Z,0
2018-07-30T01:10:34.123Z,0
2018-07-30T01:11:36.161Z,0
2018-07-30T01:12:38.209Z,0
2018-07-30T01:13:40.260Z,0
2018-07-30T01:14:42.294Z,0
2018-07-30T01:15:44.346Z,0
2018-07-30T01:16:46.392Z,0
2018-07-30T01:17:48.442Z,0
2018-07-30T01:18:50.482Z,0
2018-07-30T01:19:52.526Z,0
2018-07-30T01:20:54.573Z,0
2018-07-30T01:21:56.618Z,0
2018-07-30T01:22:58.675Z,0
2018-07-30T01:24:00.716Z,0
2018-07-30T01:25:02.762Z,0
2018-07-30T01:26:04.813Z,0
2018-07-30T01:27:06.857Z,0
2018-07-30T01:28:08.900Z,0
2018-07-30T01:29:10.943Z,0
2018-07-30T01:30:12.981Z,0
2018-07-30T01:31:15.029Z,0
2018-07-30T01:32:17.079Z,0
2018-07-30T01:33:19.125Z,0
2018-07-30T01:34:21.175Z,0
2018-07-30T01:35:23.213Z,0
2018-07-30T01:36:25.259Z,0
2018-07-30T01:37:27.307Z,0
2018-07-30T01:38:29.346Z,0
2018-07-30T01:39:31.400Z,0
2018-07-30T01:40:33.443Z,0
2018-07-30T01:41:35.486Z,0
2018-07-30T01:42:37.528Z,0
2018-07-30T01:43:39.886Z,0
2018-07-30T01:44:41.926Z,0
2018-07-30T01:45:43.970Z,0
2018-07-30T01:46:46.022Z,0
2018-07-30T01:47:48.058Z,0
2018-07-30T01:48:50.112Z,0
2018-07-30T01:49:52.169Z,0
2018-07-30T01:50:54.215Z,0
2018-07-30T01:51:56.252Z,0
2018-07-30T01:52:58.300Z,0
2018-07-30T01:54:00.349Z,0
2018-07-30T01:55:02.699Z,0
2018-07-30T01:56:04.754Z,0
2018-07-30T01:57:06.794Z,0
2018-07-30T01:58:08.842Z,0
2018-07-30T01:59:11.196Z,0
2018-07-30T02:00:13.240Z,0
2018-07-30T02:01:15.280Z,0
2018-07-30T02:02:17.326Z,0
2018-07-30T02:03:19.752Z,0
2018-07-30T02:04:21.797Z,0
2018-07-30T02:05:24.137Z,0
2018-07-30T02:06:26.235Z,0
2018-07-30T02:07:28.957Z,0
2018-07-30T02:08:31.003Z,0
2018-07-30T02:09:33.049Z,0
2018-07-30T02:10:35.097Z,0
2018-07-30T02:11:37.141Z,0
2018-07-30T02:12:39.194Z,0
2018-07-30T02:13:41.239Z,0
2018-07-30T02:14:43.288Z,0
2018-07-30T02:15:45.328Z,0
2018-07-30T02:16:47.383Z,0
2018-07-30T02:17:49.422Z,0
2018-07-30T02:18:51.855Z,0
2018-07-30T02:19:53.903Z,0
2018-07-30T02:20:55.937Z,0
2018-07-30T02:21:58.275Z,0
2018-07-30T02:23:00.606Z,0
2018-07-30T02:24:02.949Z,0
2018-07-30T02:25:04.980Z,0
2018-07-30T02:26:07.037Z,0
2018-07-30T02:27:09.082Z,0
2018-07-30T02:28:11.127Z,0
2018-07-30T02:29:13.180Z,0
2018-07-30T02:30:15.219Z,0
2018-07-30T02:31:17.271Z,0
2018-07-30T02:32:19.321Z,0
2018-07-30T02:33:21.760Z,0
2018-07-30T02:34:23.799Z,0
2018-07-30T02:35:25.845Z,0
2018-07-30T02:36:28.178Z,0
2018-07-30T02:37:30.537Z,0
2018-07-30T02:38:33.178Z,0
2018-07-30T02:39:35.225Z,0
2018-07-30T02:40:37.266Z,0
2018-07-30T02:41:39.717Z,0
2018-07-30T02:42:42.046Z,0
2018-07-30T02:43:44.386Z,0
2018-07-30T02:44:46.444Z,0
2018-07-30T02:45:48.473Z,0
2018-07-30T02:46:50.826Z,0
2018-07-30T02:47:53.558Z,0
2018-07-30T02:48:55.906Z,0
2018-07-30T02:49:57.939Z,0
2018-07-30T02:50:59.988Z,0
2018-07-30T02:52:02.344Z,0
2018-07-30T02:53:04.668Z,0
2018-07-30T02:54:06.727Z,0
2018-07-30T02:55:08.766Z,0
2018-07-30T02:56:10.810Z,0
2018-07-30T02:57:13.556Z,0
2018-07-30T02:58:15.608Z,0
2018-07-30T02:59:17.657Z,0
2018-07-30T03:00:20.288Z,0
2018-07-30T03:01:22.332Z,0
2018-07-30T03:02:24.364Z,0
2018-07-30T03:03:26.421Z,0
2018-07-30T03:04:28.468Z,0
2018-07-30T03:05:30.507Z,0
2018-07-30T03:06:32.547Z,0
2018-07-30T03:07:34.599Z,0
2018-07-30T03:08:36.643Z,0
2018-07-30T03:09:38.698Z,0
2018-07-30T03:10:41.322Z,0
2018-07-30T03:11:43.358Z,0
2018-07-30T03:12:45.689Z,0
2018-07-30T03:13:47.737Z,0
2018-07-30T03:14:49.776Z,0
2018-07-30T03:15:52.122Z,0
2018-07-30T03:16:54.168Z,0
2018-07-30T03:17:56.204Z,0
2018-07-30T03:18:58.262Z,0
2018-07-30T03:20:00.306Z,0
2018-07-30T03:21:02.356Z,0
2018-07-30T03:22:04.396Z,0
2018-07-30T03:23:06.739Z,0
2018-07-30T03:24:08.781Z,1
2018-07-30T03:25:10.821Z,1
2018-07-30T03:26:12.872Z,1
2018-07-30T03:27:14.915Z,1
2018-07-30T03:28:16.962Z,1
2018-07-30T03:29:19.303Z,1
2018-07-30T03:30:21.641Z,1
2018-07-30T03:31:23.990Z,1
2018-07-30T03:32:26.331Z,1
2018-07-30T03:33:28.373Z,1
2018-07-30T03:34:30.424Z,1
2018-07-30T03:35:32.757Z,2
2018-07-30T03:36:34.807Z,2
2018-07-30T03:37:37.132Z,2
2018-07-30T03:38:39.170Z,2
2018-07-30T03:39:41.213Z,2
2018-07-30T03:40:43.259Z,2
2018-07-30T03:41:45.304Z,2
2018-07-30T03:42:47.357Z,2
2018-07-30T03:43:49.402Z,3
2018-07-30T03:44:51.724Z,3
2018-07-30T03:45:54.155Z,3
2018-07-30T03:46:56.507Z,3
2018-07-30T03:47:58.899Z,3
2018-07-30T03:49:00.930Z,4
2018-07-30T03:50:02.974Z,4
2018-07-30T03:51:05.013Z,4
2018-07-30T03:52:07.067Z,5
2018-07-30T03:53:09.110Z,5
2018-07-30T03:54:11.436Z,5
2018-07-30T03:55:13.477Z,6
2018-07-30T03:56:15.529Z,6
2018-07-30T03:57:17.877Z,6
2018-07-30T03:58:20.223Z,6
2018-07-30T03:59:22.275Z,6
2018-07-30T04:00:24.337Z,6
2018-07-30T04:01:26.740Z,6
2018-07-30T04:02:28.787Z,6
2018-07-30T04:03:31.425Z,6
2018-07-30T04:04:33.459Z,7
2018-07-30T04:05:35.790Z,7
2018-07-30T04:06:37.832Z,7
2018-07-30T04:07:40.163Z,7
2018-07-30T04:08:42.485Z,7
2018-07-30T04:09:45.206Z,8
2018-07-30T04:10:47.255Z,8
2018-07-30T04:11:49.297Z,8
2018-07-30T04:12:51.802Z,8
2018-07-30T04:13:53.816Z,8
2018-07-30T04:14:55.862Z,9
2018-07-30T04:15:57.907Z,9
2018-07-30T04:16:59.952Z,9
2018-07-30T04:18:02.292Z,9
2018-07-30T04:19:04.341Z,10
2018-07-30T04:20:06.388Z,10
2018-07-30T04:21:08.428Z,10
2018-07-30T04:22:10.530Z,11
2018-07-30T04:23:12.521Z,11
2018-07-30T04:24:14.858Z,12
2018-07-30T04:25:17.210Z,12
2018-07-30T04:26:19.257Z,12
2018-07-30T04:27:21.295Z,13
2018-07-30T04:28:23.334Z,14
2018-07-30T04:29:25.391Z,15
2018-07-30T04:30:27.426Z,15
2018-07-30T04:31:29.471Z,15
2018-07-30T04:32:31.516Z,16
2018-07-30T04:33:33.549Z,16
2018-07-30T04:34:35.599Z,16
2018-07-30T04:35:38.039Z,16
2018-07-30T04:36:40.083Z,16
2018-07-30T04:37:42.115Z,16
2018-07-30T04:38:44.164Z,17
2018-07-30T04:39:46.209Z,17
2018-07-30T04:40:48.254Z,18
2018-07-30T04:41:50.310Z,17
2018-07-30T04:42:52.353Z,18
2018-07-30T04:43:54.799Z,19
2018-07-30T04:44:56.838Z,19
2018-07-30T04:45:58.882Z,19
2018-07-30T04:47:00.928Z,19
2018-07-30T04:48:02.981Z,19
2018-07-30T04:49:05.315Z,20
2018-07-30T04:50:07.396Z,20
2018-07-30T04:51:10.133Z,20
2018-07-30T04:52:12.174Z,20
2018-07-30T04:53:14.226Z,20
2018-07-30T04:54:16.254Z,19
2018-07-30T04:55:18.691Z,19
2018-07-30T04:56:21.034Z,19
2018-07-30T04:57:23.075Z,19
2018-07-30T04:58:25.130Z,19
2018-07-30T04:59:27.460Z,20
2018-07-30T05:00:29.900Z,20
2018-07-30T05:01:32.792Z,20
2018-07-30T05:02:35.249Z,20
2018-07-30T05:03:37.672Z,19
2018-07-30T05:04:39.720Z,19
2018-07-30T05:05:41.770Z,19
2018-07-30T05:06:43.804Z,19
2018-07-30T05:07:45.856Z,19
2018-07-30T05:08:48.190Z,19
2018-07-30T05:09:50.234Z,20
2018-07-30T05:10:52.271Z,20
2018-07-30T05:11:54.317Z,20
2018-07-30T05:12:56.361Z,22
2018-07-30T05:13:58.684Z,22
2018-07-30T05:15:01.061Z,23
2018-07-30T05:16:03.097Z,24
2018-07-30T05:17:05.141Z,25
2018-07-30T05:18:07.190Z,27
2018-07-30T05:19:09.237Z,28
2018-07-30T05:20:11.278Z,28
2018-07-30T05:21:13.916Z,29
2018-07-30T05:22:16.345Z,28
2018-07-30T05:23:18.389Z,27
2018-07-30T05:24:20.821Z,27
2018-07-30T05:25:22.875Z,27
2018-07-30T05:26:25.187Z,26
2018-07-30T05:27:27.528Z,25
2018-07-30T05:28:29.571Z,25
2018-07-30T05:29:31.616Z,23
2018-07-30T05:30:33.673Z,23
2018-07-30T05:31:35.715Z,21
2018-07-30T05:32:38.032Z,21
2018-07-30T05:33:40.080Z,21
2018-07-30T05:34:42.133Z,22
2018-07-30T05:35:44.165Z,22
2018-07-30T05:36:46.216Z,22
2018-07-30T05:37:48.261Z,23
2018-07-30T05:38:50.299Z,23
2018-07-30T05:39:52.749Z,25
2018-07-30T05:40:54.791Z,27
2018-07-30T05:41:56.835Z,29
2018-07-30T05:42:59.447Z,30
2018-07-30T05:44:01.502Z,31
2018-07-30T05:45:03.546Z,33
2018-07-30T05:46:05.891Z,34
2018-07-30T05:47:07.936Z,35
2018-07-30T05:48:09.968Z,37
2018-07-30T05:49:12.305Z,39
2018-07-30T05:50:14.350Z,41
2018-07-30T05:51:16.390Z,43
2018-07-30T05:52:18.435Z,44
2018-07-30T05:53:20.488Z,45
2018-07-30T05:54:22.534Z,46
2018-07-30T05:55:24.589Z,48
2018-07-30T05:56:26.928Z,50
2018-07-30T05:57:28.973Z,52
2018-07-30T05:58:31.711Z,54
2018-07-30T05:59:33.842Z,55
2018-07-30T06:00:35.891Z,57
2018-07-30T06:01:37.939Z,58
2018-07-30T06:02:39.987Z,61
2018-07-30T06:03:42.036Z,60
2018-07-30T06:04:44.355Z,59
2018-07-30T06:05:46.403Z,59
2018-07-30T06:06:48.738Z,57
2018-07-30T06:07:51.175Z,56
2018-07-30T06:08:53.210Z,55
2018-07-30T06:09:55.265Z,55
2018-07-30T06:10:57.313Z,54
2018-07-30T06:11:59.640Z,54
2018-07-30T06:13:01.696Z,55
2018-07-30T06:14:03.740Z,56
2018-07-30T06:15:05.791Z,55
2018-07-30T06:16:08.139Z,54
2018-07-30T06:17:10.480Z,52
2018-07-30T06:18:12.807Z,50
2018-07-30T06:19:14.855Z,50
2018-07-30T06:20:17.194Z,52
2018-07-30T06:21:19.229Z,53
2018-07-30T06:22:21.284Z,53
2018-07-30T06:23:23.334Z,52
2018-07-30T06:24:25.371Z,53
2018-07-30T06:25:27.421Z,56
2018-07-30T06:26:29.567Z,55
2018-07-30T06:27:32.502Z,57
2018-07-30T06:28:34.850Z,59
2018-07-30T06:29:36.898Z,62
2018-07-30T06:30:39.226Z,65
2018-07-30T06:31:41.271Z,67
2018-07-30T06:32:43.325Z,68
2018-07-30T06:33:45.363Z,68
2018-07-30T06:34:47.410Z,69
2018-07-30T06:35:49.746Z,63
2018-07-30T06:36:51.793Z,61
2018-07-30T06:37:53.832Z,59
2018-07-30T06:38:55.885Z,58
2018-07-30T06:39:57.934Z,55
2018-07-30T06:40:59.987Z,54
2018-07-30T06:42:02.027Z,52
2018-07-30T06:43:04.465Z,50
2018-07-30T06:44:06.514Z,49
2018-07-30T06:45:08.554Z,49
2018-07-30T06:46:10.999Z,50
2018-07-30T06:47:13.044Z,52
2018-07-30T06:48:15.095Z,56
2018-07-30T06:49:17.734Z,60
2018-07-30T06:50:20.072Z,63
2018-07-30T06:51:22.117Z,64
2018-07-30T06:52:24.166Z,62
2018-07-30T06:53:26.216Z,61
2018-07-30T06:54:28.254Z,58
2018-07-30T06:55:30.306Z,55
2018-07-30T06:56:32.352Z,54
2018-07-30T06:57:34.399Z,53
2018-07-30T06:58:36.448Z,52
2018-07-30T06:59:38.504Z,51
2018-07-30T07:00:40.553Z,52
2018-07-30T07:01:42.890Z,54
2018-07-30T07:02:44.940Z,55
2018-07-30T07:03:46.983Z,55
2018-07-30T07:04:49.030Z,55
2018-07-30T07:05:51.374Z,57
2018-07-30T07:06:53.413Z,57
2018-07-30T07:07:55.762Z,55
2018-07-30T07:08:58.093Z,55
2018-07-30T07:10:00.137Z,57
2018-07-30T07:11:02.729Z,61
2018-07-30T07:12:04.782Z,64
2018-07-30T07:13:07.138Z,63
2018-07-30T07:14:09.201Z,64
2018-07-30T07:15:11.246Z,66
2018-07-30T07:16:13.298Z,64
2018-07-30T07:17:15.352Z,64
2018-07-30T07:18:17.390Z,66
2018-07-30T07:19:19.447Z,68
2018-07-30T07:20:21.493Z,71
2018-07-30T07:21:23.630Z,74
2018-07-30T07:22:25.582Z,77
2018-07-30T07:23:27.644Z,80
2018-07-30T07:24:29.689Z,80
2018-07-30T07:25:32.024Z,80
2018-07-30T07:26:34.071Z,81
2018-07-30T07:27:36.107Z,79
2018-07-30T07:28:38.165Z,80
2018-07-30T07:29:40.215Z,81
2018-07-30T07:30:42.543Z,84
2018-07-30T07:31:44.597Z,89
2018-07-30T07:32:46.653Z,99
2018-07-30T07:33:48.704Z,101
2018-07-30T07:34:51.137Z,100
2018-07-30T07:35:53.453Z,94
2018-07-30T07:36:55.498Z,93
2018-07-30T07:37:57.558Z,91
2018-07-30T07:38:59.608Z,89
2018-07-30T07:40:01.650Z,85
2018-07-30T07:41:03.702Z,80
2018-07-30T07:42:05.755Z,77
2018-07-30T07:43:07.805Z,76
2018-07-30T07:44:10.160Z,75
2018-07-30T07:45:12.209Z,75
2018-07-30T07:46:14.261Z,74
2018-07-30T07:47:16.321Z,72
2018-07-30T07:48:18.439Z,70
2018-07-30T07:49:20.409Z,67
2018-07-30T07:50:23.275Z,67
2018-07-30T07:51:25.184Z,67
2018-07-30T07:52:27.225Z,69
2018-07-30T07:53:29.282Z,71
2018-07-30T07:54:31.332Z,74
2018-07-30T07:55:33.383Z,76
2018-07-30T07:56:35.810Z,78
2018-07-30T07:57:38.256Z,79
2018-07-30T07:58:40.308Z,80
2018-07-30T07:59:42.359Z,81
2018-07-30T08:00:44.422Z,83
2018-07-30T08:01:46.467Z,87
2018-07-30T08:02:48.520Z,90
2018-07-30T08:03:51.189Z,94
2018-07-30T08:04:53.526Z,99
2018-07-30T08:05:55.570Z,100
2018-07-30T08:06:57.628Z,100
2018-07-30T08:07:59.673Z,101
2018-07-30T08:09:01.750Z,99
2018-07-30T08:10:03.795Z,98
2018-07-30T08:11:05.943Z,97
2018-07-30T08:12:08.466Z,97
2018-07-30T08:13:10.527Z,98
2018-07-30T08:14:12.582Z,99
2018-07-30T08:15:14.633Z,102
2018-07-30T08:16:16.744Z,103
2018-07-30T08:17:18.728Z,103
2018-07-30T08:18:20.781Z,103
2018-07-30T08:19:22.831Z,103
2018-07-30T08:20:24.891Z,107
2018-07-30T08:21:26.932Z,114
2018-07-30T08:22:28.987Z,120
2018-07-30T08:23:31.037Z,125
2018-07-30T08:24:33.752Z,133
2018-07-30T08:25:35.812Z,133
2018-07-30T08:26:37.859Z,140
2018-07-30T08:27:39.908Z,133
2018-07-30T08:28:41.961Z,137
2018-07-30T08:29:44.329Z,156
2018-07-30T08:30:46.373Z,152
2018-07-30T08:31:48.427Z,185
2018-07-30T08:32:50.889Z,181
2018-07-30T08:33:53.255Z,150
2018-07-30T08:34:55.301Z,139
2018-07-30T08:35:57.354Z,135
2018-07-30T08:36:59.412Z,142
2018-07-30T08:38:01.465Z,142
2018-07-30T08:39:04.095Z,158
2018-07-30T08:40:06.144Z,252
2018-07-30T08:41:08.577Z,149
2018-07-30T08:42:10.685Z,156
2018-07-30T08:43:12.974Z,144
2018-07-30T08:44:15.031Z,151
2018-07-30T08:45:17.074Z,176
2018-07-30T08:46:19.136Z,191
2018-07-30T08:47:21.189Z,158
2018-07-30T08:48:23.241Z,248
2018-07-30T08:49:25.305Z,176
2018-07-30T08:50:27.631Z,145
2018-07-30T08:51:29.688Z,131
2018-07-30T08:52:31.741Z,137
2018-07-30T08:53:34.190Z,131
2018-07-30T08:54:36.534Z,131
2018-07-30T08:55:38.592Z,134
2018-07-30T08:56:40.930Z,145
2018-07-30T08:57:42.980Z,146
2018-07-30T08:58:45.048Z,162
2018-07-30T08:59:47.099Z,136
2018-07-30T09:00:49.149Z,128
2018-07-30T09:01:51.204Z,125
2018-07-30T09:02:53.552Z,133
2018-07-30T09:03:55.600Z,128
2018-07-30T09:04:57.651Z,126
2018-07-30T09:05:59.704Z,132
2018-07-30T09:07:02.067Z,137
2018-07-30T09:08:04.488Z,146
2018-07-30T09:09:06.539Z,154
2018-07-30T09:10:08.599Z,165
2018-07-30T09:11:10.652Z,182
2018-07-30T09:12:13.232Z,208
2018-07-30T09:13:15.286Z,275
2018-07-30T09:14:17.334Z,248
2018-07-30T09:15:19.391Z,232
2018-07-30T09:16:21.452Z,258
2018-07-30T09:17:23.504Z,224
2018-07-30T09:18:25.644Z,181
2018-07-30T09:19:27.619Z,193
2018-07-30T09:20:29.678Z,206
2018-07-30T09:21:31.734Z,199
2018-07-30T09:22:34.080Z,169
2018-07-30T09:23:36.411Z,169
2018-07-30T09:24:38.765Z,172
2018-07-30T09:25:41.106Z,175
2018-07-30T09:26:43.164Z,173
2018-07-30T09:27:45.209Z,166
2018-07-30T09:28:47.557Z,167
2018-07-30T09:29:49.621Z,163
2018-07-30T09:30:52.346Z,166
2018-07-30T09:31:54.700Z,173
2018-07-30T09:32:56.759Z,192
2018-07-30T09:33:59.099Z,262
2018-07-30T09:35:01.440Z,312
2018-07-30T09:36:03.511Z,197
2018-07-30T09:37:06.156Z,179
2018-07-30T09:38:08.215Z,211
2018-07-30T09:39:10.695Z,218
2018-07-30T09:40:12.721Z,179
2018-07-30T09:41:14.781Z,199
2018-07-30T09:42:16.839Z,187
2018-07-30T09:43:18.894Z,184
2018-07-30T09:44:20.957Z,182
2018-07-30T09:45:23.022Z,195
2018-07-30T09:46:25.079Z,216
2018-07-30T09:47:27.418Z,238
2018-07-30T09:48:29.478Z,207
2018-07-30T09:49:32.130Z,216
2018-07-30T09:50:34.571Z,232
2018-07-30T09:51:36.614Z,360
2018-07-30T09:52:38.682Z,298
2018-07-30T09:53:40.739Z,305
2018-07-30T09:54:42.796Z,385
2018-07-30T09:55:44.859Z,517
2018-07-30T09:56:46.907Z,262
2018-07-30T09:57:48.964Z,266
2018-07-30T09:58:51.024Z,214
2018-07-30T09:59:53.090Z,198
2018-07-30T10:00:55.142Z,299
2018-07-30T10:01:57.201Z,329
2018-07-30T10:02:59.257Z,247
2018-07-30T10:04:01.307Z,191
2018-07-30T10:05:03.384Z,202
2018-07-30T10:06:06.146Z,232
2018-07-30T10:07:08.205Z,208
2018-07-30T10:08:10.265Z,251
2018-07-30T10:09:12.336Z,285
2018-07-30T10:10:14.395Z,294
2018-07-30T10:11:16.750Z,211
2018-07-30T10:12:18.810Z,206
2018-07-30T10:13:21.246Z,206
2018-07-30T10:14:23.310Z,220
2018-07-30T10:15:25.374Z,299
2018-07-30T10:16:27.423Z,263
2018-07-30T10:17:29.812Z,212
2018-07-30T10:18:31.843Z,235
2018-07-30T10:19:33.901Z,367
2018-07-30T10:20:35.969Z,280
2018-07-30T10:21:38.028Z,295
2018-07-30T10:22:40.080Z,312
2018-07-30T10:23:42.195Z,386
2018-07-30T10:24:44.208Z,408
2018-07-30T10:25:46.258Z,465
2018-07-30T10:26:48.319Z,467
2018-07-30T10:27:50.378Z,510
2018-07-30T10:28:52.430Z,348
2018-07-30T10:29:54.502Z,338
2018-07-30T10:30:56.562Z,303
2018-07-30T10:31:58.628Z,346
2018-07-30T10:33:01.365Z,295
2018-07-30T10:34:03.447Z,303
2018-07-30T10:35:05.510Z,290
2018-07-30T10:36:07.569Z,308
2018-07-30T10:37:10.023Z,343
2018-07-30T10:38:12.174Z,347
2018-07-30T10:39:14.139Z,403
2018-07-30T10:40:16.199Z,289
2018-07-30T10:41:18.549Z,392
2018-07-30T10:42:20.890Z,354
2018-07-30T10:43:22.958Z,577
2018-07-30T10:44:25.020Z,383
2018-07-30T10:45:27.750Z,407
2018-07-30T10:46:29.823Z,440
2018-07-30T10:47:31.882Z,373
2018-07-30T10:48:33.945Z,367
2018-07-30T10:49:36.013Z,331
2018-07-30T10:50:38.074Z,263
2018-07-30T10:51:40.438Z,282
2018-07-30T10:52:42.501Z,291
2018-07-30T10:53:44.935Z,388
2018-07-30T10:54:46.965Z,485
2018-07-30T10:55:49.035Z,274
2018-07-30T10:56:51.097Z,248
2018-07-30T10:57:53.157Z,217
2018-07-30T10:58:55.233Z,229
2018-07-30T10:59:57.296Z,239
2018-07-30T11:00:59.387Z,256
2018-07-30T11:02:01.426Z,251
2018-07-30T11:03:03.891Z,264
2018-07-30T11:04:06.529Z,280
2018-07-30T11:05:08.613Z,267
2018-07-30T11:06:10.655Z,337
2018-07-30T11:07:12.731Z,272
2018-07-30T11:08:14.796Z,276
2018-07-30T11:09:16.869Z,327
2018-07-30T11:10:19.325Z,285
2018-07-30T11:11:21.379Z,227
2018-07-30T11:12:23.448Z,220
2018-07-30T11:13:25.512Z,240
2018-07-30T11:14:27.866Z,363
2018-07-30T11:15:29.921Z,416
2018-07-30T11:16:31.987Z,482
2018-07-30T11:17:34.335Z,430
2018-07-30T11:18:36.399Z,462
2018-07-30T11:19:38.768Z,476
2018-07-30T11:20:41.110Z,505
2018-07-30T11:21:43.265Z,506
2018-07-30T11:22:45.535Z,509
2018-07-30T11:23:47.648Z,512
2018-07-30T11:24:49.664Z,512
2018-07-30T11:25:51.725Z,467
2018-07-30T11:26:54.076Z,486
2018-07-30T11:27:56.639Z,509
2018-07-30T11:28:58.941Z,501
2018-07-30T11:30:01.005Z,519
2018-07-30T11:31:03.069Z,549
2018-07-30T11:32:05.141Z,493
2018-07-30T11:33:07.544Z,487
2018-07-30T11:34:09.595Z,423
2018-07-30T11:36:15.899Z,324
2018-07-30T11:37:17.954Z,516
2018-07-30T11:38:20.019Z,603
2018-07-30T11:39:22.102Z,580
2018-07-30T11:40:24.174Z,261
2018-07-30T11:41:26.246Z,432
2018-07-30T11:42:28.307Z,250
2018-07-30T11:43:30.378Z,349
2018-07-30T11:44:32.836Z,247
2018-07-30T11:45:34.894Z,244
2018-07-30T11:46:36.969Z,216
2018-07-30T11:47:39.030Z,205
2018-07-30T11:48:42.039Z,201
2018-07-30T11:49:43.967Z,216
2018-07-30T11:50:46.040Z,232
2018-07-30T11:51:48.097Z,241
2018-07-30T11:52:50.161Z,270
2018-07-30T11:53:52.252Z,297
2018-07-30T11:54:54.310Z,278
2018-07-30T11:55:56.378Z,198
2018-07-30T11:56:58.448Z,193
2018-07-30T11:58:00.808Z,181
2018-07-30T11:59:02.866Z,178
2018-07-30T12:00:04.931Z,173
2018-07-30T12:01:07.038Z,168
2018-07-30T12:02:09.055Z,165
2018-07-30T12:03:11.125Z,159
2018-07-30T12:04:13.867Z,160
2018-07-30T12:05:16.225Z,189
2018-07-30T12:06:18.876Z,162
2018-07-30T12:07:20.938Z,163
2018-07-30T12:08:23.000Z,180
2018-07-30T12:09:25.462Z,310
2018-07-30T12:10:27.510Z,180
2018-07-30T12:11:29.572Z,196
2018-07-30T12:12:31.635Z,239
2018-07-30T12:13:34.208Z,211
2018-07-30T12:14:36.155Z,240
2018-07-30T12:15:38.226Z,262
2018-07-30T12:16:40.289Z,240
2018-07-30T12:17:42.346Z,242
2018-07-30T12:18:44.430Z,201
2018-07-30T12:19:46.484Z,197
2018-07-30T12:20:48.945Z,205
2018-07-30T12:21:52.292Z,296
2018-07-30T12:22:54.306Z,457
2018-07-30T12:23:56.369Z,585
2018-07-30T12:24:58.431Z,513
2018-07-30T12:26:00.495Z,448
2018-07-30T12:27:02.569Z,398
2018-07-30T12:28:04.627Z,353
2018-07-30T12:29:06.690Z,316
2018-07-30T12:30:08.821Z,346
2018-07-30T12:31:11.116Z,265
2018-07-30T12:32:13.182Z,371
2018-07-30T12:33:15.240Z,418
2018-07-30T12:34:17.298Z,330
2018-07-30T12:35:19.358Z,536
2018-07-30T12:36:21.489Z,526
2018-07-30T12:37:23.493Z,521
2018-07-30T12:38:25.833Z,525
2018-07-30T12:39:28.193Z,306
2018-07-30T12:40:30.255Z,210
2018-07-30T12:41:32.612Z,183
2018-07-30T12:42:34.675Z,171
2018-07-30T12:43:37.118Z,181
2018-07-30T12:44:39.181Z,194
2018-07-30T12:45:41.245Z,183
2018-07-30T12:46:43.318Z,182
2018-07-30T12:47:45.372Z,177
2018-07-30T12:48:47.450Z,255
2018-07-30T12:49:49.518Z,258
2018-07-30T12:50:51.610Z,400
2018-07-30T12:51:53.655Z,444
2018-07-30T12:52:55.714Z,377
2018-07-30T12:53:58.060Z,179
2018-07-30T12:55:00.424Z,159
2018-07-30T12:56:02.780Z,215
2018-07-30T12:57:04.837Z,260
2018-07-30T12:58:06.906Z,226
2018-07-30T12:59:08.968Z,153
2018-07-30T13:00:11.022Z,141
2018-07-30T13:01:13.091Z,135
2018-07-30T13:02:15.158Z,138
2018-07-30T13:03:17.279Z,205
2018-07-30T13:04:19.281Z,151
2018-07-30T13:05:21.349Z,154
2018-07-30T13:06:23.824Z,171
2018-07-30T13:07:25.874Z,200
2018-07-30T13:08:27.939Z,267
2018-07-30T13:09:30.004Z,264
2018-07-30T13:10:32.371Z,274
2018-07-30T13:11:34.433Z,261
2018-07-30T13:12:36.491Z,269
2018-07-30T13:13:38.955Z,268
2018-07-30T13:14:40.967Z,308
2018-07-30T13:15:43.316Z,409
2018-07-30T13:16:45.961Z,369
2018-07-30T13:17:48.311Z,369
2018-07-30T13:18:50.373Z,235
2018-07-30T13:19:52.433Z,356
2018-07-30T13:20:54.516Z,506
2018-07-30T13:21:56.933Z,444
2018-07-30T13:22:59.002Z,327
2018-07-30T13:24:02.117Z,382
2018-07-30T13:25:04.480Z,294
2018-07-30T13:26:06.547Z,267
2018-07-30T13:27:09.003Z,320
2018-07-30T13:28:11.650Z,407
2018-07-30T13:29:13.986Z,440
2018-07-30T13:30:16.346Z,266
2018-07-30T13:31:18.414Z,166
2018-07-30T13:32:20.472Z,191
2018-07-30T13:33:22.548Z,275
2018-07-30T13:34:24.615Z,439
2018-07-30T13:35:26.684Z,379
2018-07-30T13:36:28.742Z,430
2018-07-30T13:37:30.813Z,389
2018-07-30T13:38:32.881Z,324
2018-07-30T13:39:34.948Z,202
2018-07-30T13:40:37.020Z,195
2018-07-30T13:41:39.084Z,153
2018-07-30T13:42:41.150Z,171
2018-07-30T13:43:43.504Z,234
2018-07-30T13:44:45.869Z,222
2018-07-30T13:45:47.929Z,396
2018-07-30T13:46:49.991Z,396
2018-07-30T13:47:52.057Z,406
2018-07-30T13:48:54.117Z,428
2018-07-30T13:49:56.578Z,407
2018-07-30T13:50:58.645Z,440
2018-07-30T13:52:00.714Z,426
2018-07-30T13:53:03.164Z,402
2018-07-30T13:54:05.284Z,392
2018-07-30T13:55:07.309Z,380
2018-07-30T13:56:10.358Z,414
2018-07-30T13:57:12.430Z,444
2018-07-30T13:58:14.487Z,452
2018-07-30T13:59:16.559Z,435
2018-07-30T14:00:18.921Z,405
2018-07-30T14:01:21.002Z,422
2018-07-30T14:02:23.042Z,420
2018-07-30T14:03:25.432Z,440
2018-07-30T14:04:27.476Z,421
2018-07-30T14:05:29.547Z,405
2018-07-30T14:06:32.825Z,414
2018-07-30T14:07:34.796Z,385
2018-07-30T14:08:37.155Z,106
2018-07-30T14:09:39.230Z,101
2018-07-30T14:10:42.070Z,117
2018-07-30T14:11:44.127Z,121
2018-07-30T14:12:46.253Z,144
2018-07-30T14:13:48.273Z,159
2018-07-30T14:14:50.335Z,140
2018-07-30T14:15:52.692Z,150
2018-07-30T14:16:54.763Z,126
2018-07-30T14:17:56.839Z,214
2018-07-30T14:18:58.894Z,228
2018-07-30T14:20:00.966Z,342
2018-07-30T14:21:03.032Z,378
2018-07-30T14:22:05.094Z,331
2018-07-30T14:23:07.180Z,365
2018-07-30T14:24:09.246Z,349
2018-07-30T14:25:11.318Z,349
2018-07-30T14:26:13.382Z,341
2018-07-30T14:27:15.764Z,330
2018-07-30T14:28:17.841Z,311
2018-07-30T14:29:19.899Z,294
2018-07-30T14:30:22.261Z,311
2018-07-30T14:31:24.324Z,324
2018-07-30T14:32:26.967Z,216
2018-07-30T14:33:29.712Z,262
2018-07-30T14:34:31.783Z,311
2018-07-30T14:35:33.922Z,308
2018-07-30T14:36:36.235Z,296
2018-07-30T14:37:38.291Z,302
2018-07-30T14:38:40.381Z,300
2018-07-30T14:39:42.801Z,302
2018-07-30T14:40:44.854Z,284
2018-07-30T14:41:46.921Z,278